Time;durP1;ratioP1;P1;durP2;ratioP2;P2;SDS_P1;SDS_P2;PMS_P1;PMS_P2;Temp;Humidity;BMP_temperature;BMP_pressure;BME280_temperature;BME280_humidity;BME280_pressure;Samples;Min_cycle;Max_cycle;Signal;HPM_P1;HPM_P2
2023/08/12 00:00:20;;;;;;;6.07;3.30;;;18.80;99.90;;;;;;5045921;28;20044;-67
2023/08/12 00:02:46;;;;;;;7.53;3.20;;;18.80;99.90;;;;;;5050806;28;20041;-68
2023/08/12 00:05:13;;;;;;;11.50;3.20;;;18.80;99.90;;;;;;5049515;28;20064;-67
2023/08/12 00:07:42;;;;;;;9.82;3.17;;;18.90;99.90;;;;;;5049063;28;20037;-67
2023/08/12 00:10:09;;;;;;;9.55;3.58;;;18.80;99.90;;;;;;5039709;28;20049;-67
2023/08/12 00:12:35;;;;;;;9.05;3.08;;;18.80;99.90;;;;;;5049535;28;20696;-68
2023/08/12 00:15:02;;;;;;;8.60;2.88;;;18.80;99.90;;;;;;5050010;28;20048;-68
2023/08/12 00:17:28;;;;;;;8.02;3.20;;;18.80;99.90;;;;;;5044303;28;20045;-68
2023/08/12 00:19:54;;;;;;;7.38;3.13;;;18.80;99.90;;;;;;5047620;28;20090;-68
2023/08/12 00:22:19;;;;;;;7.82;3.17;;;18.80;99.90;;;;;;5048877;28;20044;-68
2023/08/12 00:24:45;;;;;;;6.07;2.95;;;18.80;99.90;;;;;;5050000;28;20045;-67
2023/08/12 00:27:11;;;;;;;8.57;3.40;;;18.80;99.90;;;;;;5048331;28;20041;-69
2023/08/12 00:29:37;;;;;;;6.07;3.58;;;18.80;99.90;;;;;;5041439;28;20057;-68
2023/08/12 00:32:03;;;;;;;9.32;3.75;;;18.80;99.90;;;;;;5050124;28;20056;-68
2023/08/12 00:34:28;;;;;;;5.00;3.38;;;18.80;99.90;;;;;;5048958;28;20048;-68
2023/08/12 00:36:54;;;;;;;7.55;3.72;;;18.80;99.90;;;;;;5050071;28;20247;-68
2023/08/12 00:39:20;;;;;;;11.23;3.63;;;18.80;99.90;;;;;;5039899;28;20395;-68
2023/08/12 00:41:45;;;;;;;7.28;3.17;;;18.80;99.90;;;;;;5048629;28;20457;-68
2023/08/12 00:44:11;;;;;;;7.00;3.47;;;18.80;99.90;;;;;;5049174;28;20037;-68
2023/08/12 00:46:40;;;;;;;8.65;3.65;;;18.80;99.90;;;;;;5048150;28;20045;-68
2023/08/12 00:49:05;;;;;;;9.85;3.55;;;19.10;99.90;;;;;;5049222;28;20618;-67
2023/08/12 00:51:31;;;;;;;7.93;3.45;;;18.80;99.90;;;;;;5041261;28;20124;-68
2023/08/12 00:53:59;;;;;;;7.03;3.95;;;18.80;99.90;;;;;;5049747;28;20114;-67
2023/08/12 00:56:26;;;;;;;7.18;3.03;;;18.80;99.90;;;;;;5048636;28;20183;-67
2023/08/12 00:58:52;;;;;;;6.40;3.22;;;18.80;99.90;;;;;;5041844;28;20145;-67
2023/08/12 01:01:19;;;;;;;9.98;3.53;;;18.80;99.90;;;;;;5039118;28;20102;-67
2023/08/12 01:03:45;;;;;;;8.73;3.05;;;18.80;99.90;;;;;;5048166;28;20660;-67
2023/08/12 01:06:10;;;;;;;6.72;3.13;;;18.80;99.90;;;;;;5048642;28;20076;-67
2023/08/12 01:08:36;;;;;;;6.82;3.13;;;18.80;99.90;;;;;;5049564;28;20828;-68
2023/08/12 01:11:14;;;;;;;6.55;3.17;;;18.80;99.90;;;;;;5045068;28;20045;-68
2023/08/12 01:14:03;;;;;;;8.65;3.08;;;18.80;99.90;;;;;;5046009;28;20057;-68
2023/08/12 01:16:33;;;;;;;5.35;2.72;;;18.90;99.90;;;;;;4976101;28;20058;-68
2023/08/12 01:19:01;;;;;;;6.13;3.00;;;18.80;99.90;;;;;;4986081;28;20070;-67
2023/08/12 01:21:29;;;;;;;6.07;2.45;;;18.80;99.90;;;;;;4987330;28;20058;-68
2023/08/12 01:23:55;;;;;;;5.80;3.03;;;18.80;99.90;;;;;;4987839;28;20054;-68
2023/08/12 01:26:21;;;;;;;5.53;2.67;;;18.80;99.90;;;;;;4988112;28;20050;-67
2023/08/12 01:28:47;;;;;;;7.75;3.45;;;18.80;99.90;;;;;;4987590;28;20069;-67
2023/08/12 01:31:19;;;;;;;6.97;3.03;;;18.80;99.90;;;;;;4985875;28;20113;-67
2023/08/12 01:33:56;;;;;;;12.52;3.40;;;18.80;99.90;;;;;;4979647;28;20101;-68
2023/08/12 01:36:24;;;;;;;5.85;2.78;;;18.80;99.90;;;;;;4987559;28;20049;-68
2023/08/12 01:38:51;;;;;;;9.27;3.42;;;18.70;99.90;;;;;;4987811;28;20509;-68
2023/08/12 01:41:19;;;;;;;5.05;2.85;;;18.70;99.90;;;;;;4987557;28;20065;-67
2023/08/12 01:43:45;;;;;;;7.78;2.85;;;18.60;99.90;;;;;;4979319;28;20054;-68
2023/08/12 01:46:11;;;;;;;5.60;3.25;;;18.60;99.90;;;;;;4987287;28;20514;-67
2023/08/12 01:48:36;;;;;;;8.13;3.58;;;18.60;99.90;;;;;;4971047;28;20058;-67
2023/08/12 01:51:02;;;;;;;6.05;3.30;;;18.60;99.90;;;;;;4981461;28;20093;-67
2023/08/12 01:53:28;;;;;;;6.50;3.67;;;18.60;99.90;;;;;;5015534;28;20462;-68
2023/08/12 01:55:54;;;;;;;8.30;3.83;;;18.60;99.90;;;;;;5051717;28;20491;-69
2023/08/12 01:58:20;;;;;;;11.02;3.63;;;18.50;99.90;;;;;;5053132;28;20116;-68
2023/08/12 02:00:45;;;;;;;7.43;3.95;;;18.50;99.90;;;;;;5050812;28;20512;-67
2023/08/12 02:03:11;;;;;;;6.93;4.18;;;18.50;99.90;;;;;;5046875;28;20879;-68
2023/08/12 02:05:40;;;;;;;9.80;4.55;;;18.40;99.90;;;;;;5043186;28;20469;-68
2023/08/12 02:08:06;;;;;;;9.00;4.57;;;18.40;99.90;;;;;;5045400;28;20128;-68
2023/08/12 02:10:32;;;;;;;8.32;4.45;;;18.40;99.90;;;;;;5048428;28;20048;-68
2023/08/12 02:12:58;;;;;;;12.40;6.07;;;18.40;99.90;;;;;;5049041;28;20040;-68
2023/08/12 02:15:23;;;;;;;10.60;4.93;;;18.30;99.90;;;;;;5051652;28;20472;-67
2023/08/12 02:17:49;;;;;;;8.90;4.88;;;18.30;99.90;;;;;;5036915;28;20053;-68
2023/08/12 02:20:15;;;;;;;8.20;4.72;;;18.30;99.90;;;;;;5048307;28;20052;-67
2023/08/12 02:22:40;;;;;;;8.80;5.10;;;18.30;99.90;;;;;;5042099;28;20114;-68
2023/08/12 02:25:06;;;;;;;9.65;5.72;;;18.30;99.90;;;;;;5044035;28;20044;-68
2023/08/12 02:27:32;;;;;;;9.07;5.20;;;18.30;99.90;;;;;;5049019;28;20137;-67
2023/08/12 02:29:57;;;;;;;8.75;5.55;;;18.30;99.90;;;;;;5036617;28;20061;-68
2023/08/12 02:32:23;;;;;;;11.57;5.28;;;18.30;99.90;;;;;;5042871;28;20052;-67
2023/08/12 02:34:49;;;;;;;8.20;5.32;;;18.30;99.90;;;;;;5033799;28;20057;-67
2023/08/12 02:37:14;;;;;;;11.07;5.88;;;18.20;99.90;;;;;;5052074;28;20045;-68
2023/08/12 02:39:40;;;;;;;11.80;5.18;;;18.30;99.90;;;;;;5052247;28;20057;-72
2023/08/12 02:42:06;;;;;;;13.80;5.85;;;18.30;99.90;;;;;;5052260;28;20128;-67
2023/08/12 02:44:31;;;;;;;10.27;5.07;;;18.30;99.90;;;;;;5039568;28;20522;-77
2023/08/12 02:46:57;;;;;;;10.95;6.18;;;18.30;99.90;;;;;;5046940;28;20045;-77
2023/08/12 02:49:22;;;;;;;10.48;4.90;;;18.20;99.90;;;;;;5050423;28;20063;-76
2023/08/12 02:51:48;;;;;;;10.23;4.97;;;18.30;99.90;;;;;;5051807;28;20450;-76
2023/08/12 02:54:14;;;;;;;8.05;5.40;;;18.30;99.90;;;;;;5051883;28;20041;-77
2023/08/12 02:56:40;;;;;;;11.50;6.47;;;18.30;99.90;;;;;;5025771;28;20136;-68
2023/08/12 02:59:05;;;;;;;8.70;5.45;;;18.30;99.90;;;;;;5051050;28;20151;-77
2023/08/12 03:01:31;;;;;;;11.00;5.85;;;18.30;99.90;;;;;;5050584;28;20041;-77
2023/08/12 03:03:56;;;;;;;10.18;6.10;;;18.40;99.90;;;;;;5050533;28;20691;-77
2023/08/12 03:06:22;;;;;;;10.02;5.57;;;18.30;99.90;;;;;;5041981;28;20120;-76
2023/08/12 03:08:48;;;;;;;10.02;5.43;;;18.30;99.90;;;;;;5052230;28;20041;-77
2023/08/12 03:11:15;;;;;;;10.45;5.80;;;18.30;99.90;;;;;;5051804;28;20041;-78
2023/08/12 03:13:41;;;;;;;14.38;6.20;;;18.30;99.90;;;;;;5051956;28;20093;-73
2023/08/12 03:16:12;;;;;;;9.15;6.07;;;18.30;99.90;;;;;;5047400;28;20124;-75
2023/08/12 03:18:37;;;;;;;11.10;6.03;;;18.30;99.90;;;;;;5042879;28;20438;-69
2023/08/12 03:21:08;;;;;;;13.73;6.63;;;18.30;99.90;;;;;;5023497;28;20044;-76
2023/08/12 03:23:35;;;;;;;13.90;6.80;;;18.30;99.90;;;;;;5055598;22;20048;-67
2023/08/12 03:26:01;;;;;;;10.25;6.13;;;18.30;99.90;;;;;;5050525;28;20053;-67
2023/08/12 03:28:27;;;;;;;12.98;6.78;;;18.30;99.90;;;;;;5051968;28;20035;-69
2023/08/12 03:30:53;;;;;;;12.85;7.35;;;18.30;99.90;;;;;;5051760;28;20041;-67
2023/08/12 03:33:19;;;;;;;12.48;6.28;;;18.30;99.90;;;;;;5051445;28;20041;-67
2023/08/12 03:35:49;;;;;;;16.23;6.70;;;18.30;99.90;;;;;;5050892;28;20052;-67
2023/08/12 03:38:15;;;;;;;11.00;7.43;;;18.30;99.90;;;;;;5051353;28;20044;-67
2023/08/12 03:40:41;;;;;;;14.95;6.88;;;18.40;99.90;;;;;;5051864;28;20049;-68
2023/08/12 03:43:07;;;;;;;11.93;6.95;;;18.30;99.90;;;;;;5051367;28;20045;-67
2023/08/12 03:45:40;;;;;;;10.57;7.32;;;18.40;99.90;;;;;;5049217;28;20053;-71
2023/08/12 03:48:06;;;;;;;12.02;7.50;;;18.40;99.90;;;;;;5044365;28;20045;-73
2023/08/12 03:50:35;;;;;;;14.43;7.68;;;18.40;99.90;;;;;;5050789;28;20094;-67
2023/08/12 03:53:01;;;;;;;10.90;6.72;;;18.40;99.90;;;;;;5051144;28;20042;-67
2023/08/12 03:55:29;;;;;;;13.23;7.40;;;18.40;99.90;;;;;;5042426;28;20040;-69
2023/08/12 03:57:55;;;;;;;14.48;8.27;;;18.40;99.90;;;;;;5045426;28;20453;-68
2023/08/12 04:00:21;;;;;;;14.32;7.78;;;18.40;99.90;;;;;;5045293;28;20476;-67
2023/08/12 04:02:46;;;;;;;14.50;8.25;;;18.40;99.90;;;;;;5050417;28;20492;-68
2023/08/12 04:05:12;;;;;;;12.73;7.97;;;18.50;99.90;;;;;;5043634;28;20046;-68
2023/08/12 04:07:37;;;;;;;13.13;8.25;;;18.50;99.90;;;;;;5047348;28;20045;-68
2023/08/12 04:10:03;;;;;;;12.70;8.60;;;18.40;99.90;;;;;;5042102;28;20056;-68
2023/08/12 04:12:29;;;;;;;12.32;8.50;;;18.50;99.90;;;;;;5050465;28;20369;-68
2023/08/12 04:14:55;;;;;;;14.23;8.20;;;18.50;99.90;;;;;;5050563;28;20117;-69
2023/08/12 04:17:20;;;;;;;14.05;8.65;;;18.50;99.90;;;;;;5049903;28;20048;-68
2023/08/12 04:19:46;;;;;;;17.05;8.68;;;18.50;99.90;;;;;;5041550;28;20045;-67
2023/08/12 04:22:11;;;;;;;15.95;8.48;;;18.50;99.90;;;;;;5049966;28;20077;-69
2023/08/12 04:24:37;;;;;;;13.20;8.52;;;18.60;99.90;;;;;;5050340;28;20052;-67
2023/08/12 04:27:03;;;;;;;13.80;9.15;;;18.50;99.90;;;;;;5050159;28;20400;-68
2023/08/12 04:29:28;;;;;;;14.13;8.27;;;18.60;99.90;;;;;;5049835;28;20111;-67
2023/08/12 04:31:54;;;;;;;17.75;9.27;;;18.60;99.90;;;;;;5048635;28;20049;-67
2023/08/12 04:34:20;;;;;;;16.88;8.77;;;18.50;99.90;;;;;;5050078;28;20068;-68
2023/08/12 04:36:45;;;;;;;11.55;7.65;;;18.60;99.90;;;;;;5049753;28;20052;-68
2023/08/12 04:39:11;;;;;;;15.05;9.27;;;18.60;99.90;;;;;;5049965;28;20045;-68
2023/08/12 04:41:38;;;;;;;18.20;8.75;;;18.60;99.90;;;;;;5041492;28;20041;-68
2023/08/12 04:44:04;;;;;;;13.98;8.55;;;18.60;99.90;;;;;;5049722;28;20106;-68
2023/08/12 04:46:30;;;;;;;16.70;9.27;;;18.60;99.90;;;;;;5050066;28;20056;-67
2023/08/12 04:48:56;;;;;;;14.57;8.63;;;18.60;99.90;;;;;;5048563;28;20412;-68
2023/08/12 04:51:21;;;;;;;15.93;8.90;;;18.70;99.90;;;;;;5041059;28;20037;-67
2023/08/12 04:53:47;;;;;;;19.20;9.27;;;18.60;99.90;;;;;;5049750;28;20468;-67
2023/08/12 04:56:13;;;;;;;13.77;9.00;;;18.70;99.90;;;;;;5050063;28;20044;-67
2023/08/12 04:58:38;;;;;;;14.07;7.55;;;18.70;99.90;;;;;;5039901;28;20041;-68
2023/08/12 05:01:04;;;;;;;12.00;8.52;;;18.70;99.90;;;;;;5049444;28;20149;-68
2023/08/12 05:03:30;;;;;;;16.00;8.55;;;18.70;99.90;;;;;;5041443;28;20146;-69
2023/08/12 05:05:55;;;;;;;15.65;8.52;;;18.70;99.90;;;;;;5048462;28;20052;-68
2023/08/12 05:08:21;;;;;;;12.38;8.65;;;18.80;99.90;;;;;;5041220;28;20041;-67
2023/08/12 05:10:48;;;;;;;16.58;8.73;;;18.80;99.90;;;;;;5049326;28;20049;-68
2023/08/12 05:13:14;;;;;;;16.25;8.35;;;18.80;99.90;;;;;;5049269;28;20471;-69
2023/08/12 05:15:40;;;;;;;14.27;8.82;;;18.80;99.90;;;;;;5048621;28;20127;-68
2023/08/12 05:18:06;;;;;;;16.42;8.48;;;18.90;99.90;;;;;;5049450;28;20045;-68
2023/08/12 05:20:32;;;;;;;14.55;8.85;;;18.90;99.90;;;;;;5048334;28;20052;-69
2023/08/12 05:22:58;;;;;;;14.25;8.25;;;18.90;99.90;;;;;;5048537;28;20049;-68
2023/08/12 05:25:23;;;;;;;10.65;7.85;;;18.90;99.90;;;;;;5049289;28;20056;-68
2023/08/12 05:27:50;;;;;;;18.88;8.75;;;19.00;99.90;;;;;;5049141;28;20049;-68
2023/08/12 05:30:15;;;;;;;11.05;8.75;;;19.10;99.90;;;;;;5051098;28;20055;-68
2023/08/12 05:32:41;;;;;;;15.52;8.35;;;19.10;99.90;;;;;;5053580;28;20112;-67
2023/08/12 05:35:07;;;;;;;15.35;9.00;;;19.20;99.90;;;;;;5044985;28;20041;-68
2023/08/12 05:37:33;;;;;;;15.43;8.70;;;19.30;99.90;;;;;;5053628;28;20079;-68
2023/08/12 05:39:58;;;;;;;16.65;8.57;;;19.30;99.90;;;;;;5052962;28;20439;-68
2023/08/12 05:42:24;;;;;;;15.98;9.32;;;19.30;99.90;;;;;;5044967;28;20045;-68
2023/08/12 05:44:50;;;;;;;14.30;8.10;;;19.30;99.90;;;;;;5053105;28;20036;-69
2023/08/12 05:47:15;;;;;;;17.08;9.18;;;19.40;99.90;;;;;;5052280;28;20052;-68
2023/08/12 05:49:42;;;;;;;14.07;8.95;;;19.40;99.90;;;;;;5044997;28;20129;-68
2023/08/12 05:52:10;;;;;;;15.65;8.70;;;19.40;99.90;;;;;;5053333;28;20105;-68
2023/08/12 05:54:35;;;;;;;19.30;9.02;;;19.50;99.90;;;;;;5051097;28;20107;-68
2023/08/12 05:57:01;;;;;;;13.95;8.73;;;19.50;99.90;;;;;;5045035;28;20040;-67
2023/08/12 05:59:27;;;;;;;17.60;8.93;;;19.60;99.90;;;;;;5053542;28;20499;-67
2023/08/12 06:01:53;;;;;;;18.17;9.75;;;19.60;99.90;;;;;;5052918;28;20169;-68
2023/08/12 06:04:19;;;;;;;22.27;9.05;;;19.70;99.90;;;;;;5051264;28;20037;-68
2023/08/12 06:06:45;;;;;;;15.30;9.30;;;19.70;99.90;;;;;;5043120;28;20396;-68
2023/08/12 06:09:10;;;;;;;15.05;9.77;;;19.80;99.90;;;;;;5045564;28;20048;-68
2023/08/12 06:11:36;;;;;;;14.35;9.73;;;19.80;99.90;;;;;;5052916;28;20066;-67
2023/08/12 06:14:02;;;;;;;14.55;9.23;;;19.80;99.90;;;;;;5044179;28;20133;-68
2023/08/12 06:16:28;;;;;;;16.48;9.75;;;19.90;99.90;;;;;;5052700;28;20508;-67
2023/08/12 06:18:54;;;;;;;17.67;9.13;;;19.90;99.90;;;;;;5039614;28;20133;-70
2023/08/12 06:21:20;;;;;;;17.92;9.85;;;19.90;99.90;;;;;;5045206;28;20048;-72
2023/08/12 06:23:46;;;;;;;18.08;9.55;;;20.10;99.90;;;;;;5052018;28;20057;-68
2023/08/12 06:26:11;;;;;;;18.67;9.63;;;20.00;99.90;;;;;;5049535;28;20049;-70
2023/08/12 06:28:37;;;;;;;15.73;9.48;;;20.00;99.90;;;;;;5044789;28;20580;-70
2023/08/12 06:31:03;;;;;;;14.85;9.68;;;20.00;99.90;;;;;;5052709;28;20195;-70
2023/08/12 06:33:28;;;;;;;14.45;9.85;;;20.10;99.90;;;;;;5052474;28;20078;-68
2023/08/12 06:35:54;;;;;;;16.67;9.27;;;20.10;99.90;;;;;;5052002;28;20146;-72
2023/08/12 06:38:20;;;;;;;18.35;10.63;;;20.10;99.90;;;;;;5043904;28;20044;-70
2023/08/12 06:40:47;;;;;;;15.98;9.88;;;20.10;99.90;;;;;;5051377;28;20056;-72
2023/08/12 06:43:13;;;;;;;15.20;9.63;;;20.20;99.90;;;;;;5042783;28;20048;-69
2023/08/12 06:45:39;;;;;;;17.45;9.77;;;20.20;99.90;;;;;;5052411;28;20037;-72
2023/08/12 06:48:05;;;;;;;20.08;9.88;;;20.20;99.90;;;;;;5048879;28;20373;-71
2023/08/12 06:50:32;;;;;;;17.80;10.27;;;20.20;99.90;;;;;;5050731;28;20126;-72
2023/08/12 06:52:58;;;;;;;20.55;11.23;;;20.20;99.90;;;;;;5052061;28;20404;-72
2023/08/12 06:55:24;;;;;;;17.42;10.88;;;20.20;99.90;;;;;;5051760;28;20041;-72
2023/08/12 06:57:49;;;;;;;22.10;11.07;;;20.30;99.90;;;;;;5046532;28;20033;-70
2023/08/12 07:00:15;;;;;;;18.45;11.20;;;20.30;99.90;;;;;;5046982;28;20045;-72
2023/08/12 07:02:42;;;;;;;15.82;10.05;;;20.30;99.90;;;;;;5043428;28;20056;-75
2023/08/12 07:05:08;;;;;;;18.55;10.85;;;20.30;99.90;;;;;;5051864;28;20044;-73
2023/08/12 07:07:34;;;;;;;21.95;12.02;;;20.30;99.90;;;;;;5051879;28;20048;-77
2023/08/12 07:10:00;;;;;;;19.98;11.25;;;20.40;99.90;;;;;;5039993;28;20052;-71
2023/08/12 07:12:26;;;;;;;24.27;12.75;;;20.40;99.90;;;;;;5037900;28;20037;-70
2023/08/12 07:14:52;;;;;;;17.48;12.15;;;20.40;99.90;;;;;;5052118;28;20389;-77
2023/08/12 07:17:18;;;;;;;20.40;11.80;;;20.40;99.90;;;;;;5038932;28;20395;-74
2023/08/12 07:19:44;;;;;;;20.73;11.65;;;20.40;99.90;;;;;;5046264;28;20041;-69
2023/08/12 07:22:09;;;;;;;19.38;12.82;;;20.40;99.90;;;;;;5048657;28;20041;-75
2023/08/12 07:24:35;;;;;;;26.88;13.23;;;20.40;99.90;;;;;;5045264;28;20152;-77
2023/08/12 07:27:01;;;;;;;27.45;13.25;;;20.50;99.90;;;;;;5050421;28;20057;-75
2023/08/12 07:29:27;;;;;;;21.45;12.20;;;20.50;99.90;;;;;;5039985;28;20116;-74
2023/08/12 07:31:53;;;;;;;22.25;11.70;;;20.50;99.90;;;;;;5047435;28;20037;-78
2023/08/12 07:34:18;;;;;;;22.85;12.70;;;20.50;99.90;;;;;;5051125;28;20508;-78
2023/08/12 07:36:45;;;;;;;25.83;14.23;;;20.60;99.90;;;;;;5051471;28;20069;-71
2023/08/12 07:39:11;;;;;;;20.30;12.00;;;20.60;99.90;;;;;;5040008;28;20052;-70
2023/08/12 07:41:37;;;;;;;20.40;12.43;;;20.90;99.90;;;;;;5047845;28;20045;-76
2023/08/12 07:44:04;;;;;;;26.08;13.45;;;20.60;99.90;;;;;;5047405;28;20047;-76
2023/08/12 07:46:29;;;;;;;21.38;12.85;;;20.60;99.90;;;;;;5049751;28;20144;-78
2023/08/12 07:48:56;;;;;;;22.52;13.65;;;20.60;99.90;;;;;;5051307;28;20120;-74
2023/08/12 07:51:22;;;;;;;22.55;13.55;;;20.60;99.90;;;;;;5051152;28;20053;-69
2023/08/12 07:53:48;;;;;;;20.70;12.30;;;20.60;99.90;;;;;;5041947;28;20041;-68
2023/08/12 07:56:13;;;;;;;18.58;12.80;;;20.60;99.90;;;;;;5042480;28;20045;-69
2023/08/12 07:58:39;;;;;;;20.60;13.07;;;20.70;99.90;;;;;;5050696;28;20084;-68
2023/08/12 08:01:05;;;;;;;21.77;12.32;;;20.70;99.90;;;;;;5050799;28;20234;-68
2023/08/12 08:03:31;;;;;;;17.60;10.95;;;20.70;99.90;;;;;;5050539;28;20044;-68
2023/08/12 08:05:56;;;;;;;24.85;13.68;;;20.70;99.90;;;;;;5042244;28;20420;-67
2023/08/12 08:08:22;;;;;;;24.08;13.38;;;20.70;99.90;;;;;;5050699;28;20124;-67
2023/08/12 08:10:48;;;;;;;20.50;11.63;;;20.70;99.90;;;;;;5049168;28;20053;-68
2023/08/12 08:13:13;;;;;;;18.02;11.68;;;20.70;99.90;;;;;;5050369;28;20160;-68
2023/08/12 08:15:39;;;;;;;21.40;13.32;;;20.70;99.90;;;;;;5040748;28;20085;-67
2023/08/12 08:18:05;;;;;;;18.77;11.95;;;20.80;99.90;;;;;;5050599;28;20412;-70
2023/08/12 08:20:31;;;;;;;20.20;12.65;;;20.80;99.90;;;;;;5040248;28;20041;-68
2023/08/12 08:22:56;;;;;;;21.20;12.60;;;20.80;99.90;;;;;;5049068;28;20423;-67
2023/08/12 08:25:22;;;;;;;25.88;12.85;;;20.80;99.90;;;;;;5048959;28;20467;-68
2023/08/12 08:27:48;;;;;;;22.98;12.65;;;20.80;99.90;;;;;;5049448;28;20053;-68
2023/08/12 08:30:14;;;;;;;23.67;12.00;;;20.80;99.90;;;;;;5048039;28;20093;-69
2023/08/12 08:32:40;;;;;;;21.98;12.90;;;20.80;99.90;;;;;;5043007;28;20132;-69
2023/08/12 08:35:06;;;;;;;17.13;11.25;;;20.80;99.90;;;;;;5032112;28;20128;-67
2023/08/12 08:37:32;;;;;;;19.95;12.27;;;20.80;99.90;;;;;;5050025;28;20055;-69
2023/08/12 08:39:58;;;;;;;19.80;12.00;;;20.90;99.90;;;;;;5041620;28;20045;-69
2023/08/12 08:42:25;;;;;;;19.38;12.68;;;20.90;99.90;;;;;;5049883;28;20048;-67
2023/08/12 08:44:58;;;;;;;18.70;12.90;;;20.80;99.90;;;;;;5049566;28;20052;-68
2023/08/12 08:47:26;;;;;;;20.50;13.02;;;20.90;99.90;;;;;;5049477;28;20041;-69
2023/08/12 08:49:57;;;;;;;21.33;11.98;;;20.80;99.90;;;;;;5049557;28;21166;-68
2023/08/12 08:52:27;;;;;;;19.15;12.25;;;20.90;99.90;;;;;;5049347;28;20132;-69
2023/08/12 08:54:53;;;;;;;16.65;11.45;;;20.90;99.90;;;;;;5042664;28;20045;-69
2023/08/12 08:57:19;;;;;;;18.67;13.23;;;20.80;99.90;;;;;;5049676;28;20049;-71
2023/08/12 08:59:45;;;;;;;22.60;13.10;;;20.80;99.90;;;;;;5046750;28;20041;-69
2023/08/12 09:02:18;;;;;;;24.00;15.00;;;20.90;99.90;;;;;;5044309;28;20055;-69
2023/08/12 09:04:46;;;;;;;21.95;14.38;;;20.80;99.90;;;;;;5048354;28;20037;-69
2023/08/12 09:07:13;;;;;;;24.20;14.60;;;20.80;99.90;;;;;;5041499;28;20573;-70
2023/08/12 09:09:48;;;;;;;20.52;14.50;;;20.80;99.90;;;;;;5048206;28;20408;-70
2023/08/12 09:12:15;;;;;;;21.33;13.90;;;20.80;99.90;;;;;;5049833;28;20511;-70
2023/08/12 09:14:43;;;;;;;18.98;13.57;;;20.80;99.90;;;;;;5049764;28;20068;-70
2023/08/12 09:17:09;;;;;;;25.95;15.20;;;20.80;99.90;;;;;;5041371;28;20499;-68
2023/08/12 09:19:35;;;;;;;23.48;14.52;;;20.90;99.90;;;;;;5044514;28;20093;-69
2023/08/12 09:22:04;;;;;;;22.73;15.77;;;20.80;99.90;;;;;;5043274;28;20057;-71
2023/08/12 09:24:30;;;;;;;22.88;14.65;;;20.90;99.90;;;;;;5049057;28;20131;-68
2023/08/12 09:26:56;;;;;;;21.70;14.02;;;20.90;99.90;;;;;;5049400;28;20128;-68
2023/08/12 09:29:33;;;;;;;21.52;14.63;;;20.90;99.90;;;;;;5049524;28;20048;-68
2023/08/12 09:32:07;;;;;;;22.38;14.98;;;20.80;99.90;;;;;;5048996;28;20052;-69
2023/08/12 09:34:33;;;;;;;19.52;13.88;;;20.90;99.90;;;;;;5047803;28;20153;-77
2023/08/12 09:36:58;;;;;;;21.05;14.07;;;20.90;99.90;;;;;;5040927;28;20434;-68
2023/08/12 09:39:24;;;;;;;24.27;15.18;;;20.90;99.90;;;;;;5041255;28;20045;-69
2023/08/12 09:41:51;;;;;;;18.40;13.55;;;20.90;99.90;;;;;;5049720;28;20048;-69
2023/08/12 09:44:16;;;;;;;20.15;15.25;;;20.90;99.90;;;;;;5047043;28;20098;-72
2023/08/12 09:46:42;;;;;;;17.60;12.38;;;20.90;99.90;;;;;;5044201;28;20519;-67
2023/08/12 09:49:08;;;;;;;21.75;12.85;;;20.90;99.90;;;;;;5044800;28;20044;-68
2023/08/12 09:51:35;;;;;;;18.80;13.15;;;21.00;99.90;;;;;;5039233;28;20045;-68
2023/08/12 09:54:02;;;;;;;17.27;12.57;;;20.90;99.90;;;;;;5035682;28;20048;-69
2023/08/12 09:56:33;;;;;;;18.50;13.13;;;20.90;99.90;;;;;;5040868;28;20045;-70
2023/08/12 09:59:00;;;;;;;16.15;11.43;;;21.00;99.90;;;;;;5044466;28;20507;-68
2023/08/12 10:01:27;;;;;;;15.18;11.77;;;20.90;99.90;;;;;;5044495;28;20052;-69
2023/08/12 10:03:54;;;;;;;13.57;10.63;;;20.90;99.90;;;;;;5037939;28;20057;-67
2023/08/12 10:06:20;;;;;;;15.27;12.02;;;20.90;99.90;;;;;;5049001;28;20103;-68
2023/08/12 10:08:47;;;;;;;16.55;11.85;;;20.90;99.90;;;;;;5040579;28;20045;-68
2023/08/12 10:11:14;;;;;;;16.02;12.07;;;20.90;99.90;;;;;;5044520;28;20065;-68
2023/08/12 10:13:43;;;;;;;18.08;10.73;;;20.80;99.90;;;;;;5045632;28;20050;-68
2023/08/12 10:16:09;;;;;;;11.27;9.23;;;20.80;99.90;;;;;;5041574;28;20045;-74
2023/08/12 10:18:38;;;;;;;10.32;7.72;;;20.80;99.90;;;;;;5045639;28;20049;-68
2023/08/12 10:21:06;;;;;;;11.82;7.97;;;20.80;99.90;;;;;;5051213;28;20053;-67
2023/08/12 10:23:32;;;;;;;10.95;7.20;;;20.80;99.90;;;;;;5050520;28;20061;-67
2023/08/12 10:25:59;;;;;;;11.02;6.75;;;20.80;99.90;;;;;;5052336;28;20061;-66
2023/08/12 10:28:25;;;;;;;12.82;6.75;;;20.80;99.90;;;;;;5051381;28;20116;-68
2023/08/12 10:30:52;;;;;;;9.15;7.40;;;20.80;99.90;;;;;;5044758;28;20835;-71
2023/08/12 10:33:18;;;;;;;9.05;6.78;;;20.70;99.90;;;;;;5041727;28;20057;-68
2023/08/12 10:35:49;;;;;;;10.32;6.30;;;20.70;99.90;;;;;;5034781;28;20048;-68
2023/08/12 10:38:17;;;;;;;8.85;5.20;;;20.70;99.90;;;;;;5049717;28;20052;-69
2023/08/12 10:40:43;;;;;;;7.45;4.85;;;20.80;99.90;;;;;;5027714;28;20079;-69
2023/08/12 10:43:10;;;;;;;6.38;3.65;;;20.80;99.90;;;;;;5044417;28;20087;-69
2023/08/12 10:45:52;;;;;;;8.68;4.25;;;20.80;99.90;;;;;;5042519;28;20251;-71
2023/08/12 10:48:21;;;;;;;5.72;3.10;;;20.80;99.90;;;;;;5032745;28;20491;-73
2023/08/12 10:50:53;;;;;;;5.15;3.05;;;20.80;99.90;;;;;;5048030;28;20045;-69
2023/08/12 10:53:30;;;;;;;6.25;3.03;;;20.80;99.90;;;;;;5048782;28;20041;-71
2023/08/12 10:56:00;;;;;;;6.65;3.60;;;20.80;99.90;;;;;;5050183;28;20075;-74
2023/08/12 10:58:46;;;;;;;9.10;3.72;;;20.80;99.90;;;;;;5051471;28;20053;-75
2023/08/12 11:01:16;;;;;;;6.25;3.47;;;20.80;99.90;;;;;;5049635;28;20101;-79
2023/08/12 11:03:47;;;;;;;5.47;3.72;;;20.80;99.90;;;;;;5043049;28;20045;-79
2023/08/12 11:06:13;;;;;;;5.97;4.10;;;20.90;99.90;;;;;;5046281;28;20037;-78
2023/08/12 11:08:52;;;;;;;5.95;3.88;;;20.90;99.90;;;;;;5040458;28;20040;-80
2023/08/12 11:11:27;;;;;;;6.38;3.40;;;20.90;99.90;;;;;;5051949;28;20183;-71
2023/08/12 11:13:54;;;;;;;5.85;3.67;;;20.90;99.90;;;;;;5051856;28;20133;-77
2023/08/12 11:16:34;;;;;;;5.10;3.28;;;20.90;99.90;;;;;;5051381;28;20549;-69
2023/08/12 11:19:00;;;;;;;4.03;2.70;;;20.80;99.90;;;;;;5051314;28;20045;-69
2023/08/12 11:21:26;;;;;;;3.25;1.80;;;20.90;99.90;;;;;;5051632;28;20048;-69
2023/08/12 11:23:55;;;;;;;6.25;2.10;;;20.70;99.90;;;;;;5051526;28;20059;-69
2023/08/12 11:26:23;;;;;;;4.20;1.60;;;20.70;99.90;;;;;;5051238;28;20049;-68
2023/08/12 11:28:49;;;;;;;4.60;1.98;;;20.40;99.90;;;;;;5039770;28;20153;-67
2023/08/12 11:31:16;;;;;;;5.60;2.00;;;20.10;99.90;;;;;;5047804;28;20037;-74
2023/08/12 11:33:42;;;;;;;4.80;2.08;;;19.80;99.90;;;;;;5045475;28;20049;-68
2023/08/12 11:36:07;;;;;;;5.30;1.92;;;19.60;99.90;;;;;;5042534;28;20049;-76
2023/08/12 11:38:33;;;;;;;6.10;2.47;;;19.40;99.90;;;;;;5042937;28;20072;-69
2023/08/12 11:41:02;;;;;;;7.65;2.60;;;19.30;99.90;;;;;;5044911;28;20044;-70
2023/08/12 11:43:30;;;;;;;7.57;2.60;;;19.30;99.90;;;;;;5051610;28;20114;-67
2023/08/12 11:45:56;;;;;;;5.72;2.63;;;19.20;99.90;;;;;;5042890;28;20045;-74
2023/08/12 11:48:23;;;;;;;6.50;2.00;;;19.10;99.90;;;;;;5033129;28;20106;-74
2023/08/12 11:50:50;;;;;;;6.80;2.55;;;18.90;99.90;;;;;;5051144;28;20088;-68
2023/08/12 11:53:16;;;;;;;9.48;2.53;;;18.80;99.90;;;;;;5051260;28;20037;-68
2023/08/12 11:55:42;;;;;;;7.35;2.30;;;18.80;99.90;;;;;;5050493;28;20052;-68
2023/08/12 11:58:08;;;;;;;5.57;1.70;;;18.70;99.90;;;;;;5050734;28;20088;-67
2023/08/12 12:00:33;;;;;;;6.70;2.35;;;18.70;99.90;;;;;;5050539;28;20102;-68
2023/08/12 12:02:59;;;;;;;10.02;2.40;;;18.80;99.90;;;;;;5050751;28;20079;-68
2023/08/12 12:05:34;;;;;;;6.80;2.22;;;18.70;99.90;;;;;;5050531;28;20044;-69
2023/08/12 12:08:00;;;;;;;7.68;2.42;;;18.70;99.90;;;;;;5045724;28;20052;-68
2023/08/12 12:10:31;;;;;;;8.02;2.45;;;18.80;99.90;;;;;;5049117;28;20037;-68
2023/08/12 12:12:58;;;;;;;7.13;2.00;;;18.80;99.90;;;;;;5050754;28;20096;-67
2023/08/12 12:15:24;;;;;;;12.57;2.40;;;18.80;99.90;;;;;;5044147;28;20095;-67
2023/08/12 12:17:50;;;;;;;8.18;2.15;;;19.00;99.90;;;;;;5047728;28;20492;-68
2023/08/12 12:20:16;;;;;;;6.50;2.17;;;19.10;99.90;;;;;;5048443;28;20403;-71
2023/08/12 12:22:44;;;;;;;7.57;2.00;;;19.30;99.90;;;;;;5050493;28;20041;-69
2023/08/12 12:25:15;;;;;;;7.70;2.08;;;19.50;99.90;;;;;;5047355;28;20492;-68
2023/08/12 12:27:42;;;;;;;10.80;2.42;;;19.80;99.90;;;;;;5045077;28;20061;-68
2023/08/12 12:30:09;;;;;;;6.93;1.55;;;20.00;99.90;;;;;;5050347;28;20443;-70
2023/08/12 12:32:35;;;;;;;7.47;2.33;;;20.00;99.90;;;;;;5050223;28;20044;-69
2023/08/12 12:35:01;;;;;;;6.18;1.75;;;20.10;99.90;;;;;;5049932;28;20106;-68